Time;durP1;ratioP1;P1;durP2;ratioP2;P2;SDS_P1;SDS_P2;PMS_P1;PMS_P2;Temp;Humidity;BMP_temperature;BMP_pressure;BME280_temperature;BME280_humidity;BME280_pressure;Samples;Min_cycle;Max_cycle;Signal;HPM_P1;HPM_P2
2022/09/04 00:01:04;;;;;;;;;;;;;;;10.34;60.81;100575.25;4773262;29;20059;-77
2022/09/04 00:03:45;;;;;;;5.20;3.13;;;;;;;10.18;61.36;100553.50;4783233;29;19921;-79
2022/09/04 00:06:19;;;;;;;4.55;3.50;;;;;;;10.20;61.41;100564.78;4784271;29;20126;-78
2022/09/04 00:09:11;;;;;;;9.07;3.38;;;;;;;10.22;61.19;100574.38;4768802;29;20046;-76
2022/09/04 00:11:48;;;;;;;5.10;2.90;;;;;;;10.17;61.09;100564.78;4783426;29;20126;-78
2022/09/04 00:14:17;;;;;;;5.13;3.08;;;;;;;10.20;61.29;100570.00;4783364;29;20141;-79
2022/09/04 00:17:00;;;;;;;5.50;2.88;;;;;;;10.16;61.23;100560.44;4785729;29;20124;-79
2022/09/04 00:19:33;;;;;;;6.45;2.70;;;;;;;10.01;61.71;100541.28;4784949;29;20051;-79
2022/09/04 00:22:03;;;;;;;4.05;3.15;;;;;;;10.08;61.18;100560.41;4783478;29;20042;-77
2022/09/04 00:24:36;;;;;;;5.63;2.88;;;;;;;10.09;61.58;100562.13;4769032;29;20047;-77
2022/09/04 00:27:12;;;;;;;4.32;2.80;;;;;;;10.14;61.43;100570.84;4783993;29;20050;-77
2022/09/04 00:29:50;;;;;;;6.50;3.05;;;;;;;10.10;61.23;100575.16;4782123;29;20085;-77
2022/09/04 00:32:36;;;;;;;5.80;3.50;;;;;;;10.08;61.53;100568.19;4768320;29;20903;-78
2022/09/04 00:35:30;;;;;;;9.35;3.28;;;;;;;10.06;61.87;100572.50;4785340;29;20529;-78
2022/09/04 00:38:31;;;;;;;6.35;3.47;;;;;;;10.06;61.88;100573.41;4784439;29;20115;-76
2022/09/04 00:41:23;;;;;;;6.60;3.30;;;;;;;10.04;61.50;100571.66;4797949;29;20078;-76
2022/09/04 00:43:55;;;;;;;7.30;4.07;;;;;;;10.02;62.06;100569.03;4784349;29;20571;-77
2022/09/04 00:46:43;;;;;;;7.07;3.45;;;;;;;9.98;61.92;100569.88;4809798;29;20070;-77
2022/09/04 00:49:30;;;;;;;5.90;3.42;;;;;;;9.92;61.69;100570.72;4793461;29;20043;-76
2022/09/04 00:52:07;;;;;;;4.97;3.53;;;;;;;9.83;62.02;100564.59;4797643;29;21544;-77
2022/09/04 00:54:46;;;;;;;6.70;3.55;;;;;;;9.85;61.90;100575.88;4811271;29;20143;-78
2022/09/04 00:57:36;;;;;;;6.07;3.08;;;;;;;9.83;62.76;100578.44;4787567;29;20047;-78
2022/09/04 01:00:17;;;;;;;5.22;3.33;;;;;;;9.78;62.46;100574.97;4786440;29;20043;-79
2022/09/04 01:03:11;;;;;;;7.13;3.60;;;;;;;9.74;62.73;100575.81;4772532;29;20062;-78
2022/09/04 01:06:11;;;;;;;5.30;3.67;;;;;;;9.71;62.79;100573.19;4771035;29;20145;-76
2022/09/04 01:09:07;;;;;;;5.05;3.40;;;;;;;9.67;62.90;100572.28;4770972;29;20071;-76
2022/09/04 01:11:48;;;;;;;7.88;3.22;;;;;;;9.61;63.20;100580.88;4771130;29;20186;-78
2022/09/04 01:14:25;;;;;;;5.28;3.20;;;;;;;9.46;63.16;100560.00;4789921;29;20051;-78
2022/09/04 01:17:08;;;;;;;6.72;3.25;;;;;;;9.54;63.12;100586.03;4773096;29;20487;-80
2022/09/04 01:19:48;;;;;;;5.90;3.20;;;;;;;9.53;63.39;100586.88;4781522;29;20428;-77
2022/09/04 01:22:52;;;;;;;4.07;2.65;;;;;;;9.50;63.64;100585.16;4795981;29;20051;-77
2022/09/04 01:26:12;;;;;;;4.55;2.78;;;;;;;9.52;63.91;100590.34;4795109;29;20814;-78
2022/09/04 01:29:12;;;;;;;4.43;2.83;;;;;;;9.48;63.52;100584.25;4730634;30;20055;-78
2022/09/04 01:31:53;;;;;;;4.75;2.97;;;;;;;9.46;63.88;100586.88;4777463;29;20040;-79
2022/09/04 01:34:58;;;;;;;5.32;2.90;;;;;;;9.45;63.82;100586.84;4771911;29;20135;-78
2022/09/04 01:37:24;;;;;;;4.88;3.05;;;;;;;9.44;63.95;100582.50;4771462;29;20055;-78
2022/09/04 01:40:20;;;;;;;5.63;2.80;;;;;;;9.41;63.80;100582.47;4770811;29;20125;-77
2022/09/04 01:43:01;;;;;;;5.88;2.70;;;;;;;9.38;64.18;100580.72;4784383;29;20055;-77
2022/09/04 01:45:59;;;;;;;4.43;2.87;;;;;;;9.36;63.71;100578.97;4770284;29;20137;-77
2022/09/04 01:48:43;;;;;;;4.03;2.92;;;;;;;9.34;64.18;100591.94;4782449;29;20316;-77
2022/09/04 01:51:27;;;;;;;4.95;2.78;;;;;;;9.29;64.03;100578.03;4768882;29;20528;-76
2022/09/04 01:54:36;;;;;;;7.55;3.22;;;;;;;9.26;64.13;100572.84;4770142;29;20055;-77
2022/09/04 01:57:33;;;;;;;5.15;2.60;;;;;;;9.23;64.79;100570.22;4769578;29;20416;-75
2022/09/04 02:00:13;;;;;;;4.85;3.25;;;;;;;9.22;64.49;100566.72;4785749;29;20487;-77
2022/09/04 02:02:52;;;;;;;4.97;3.08;;;;;;;9.21;64.89;100562.38;4770560;29;20051;-76
2022/09/04 02:05:49;;;;;;;4.93;2.88;;;;;;;9.25;64.45;100566.75;4786220;29;20128;-77
2022/09/04 02:08:40;;;;;;;6.13;3.20;;;;;;;9.21;64.75;100562.38;4785904;29;20051;-78
2022/09/04 02:11:13;;;;;;;4.93;3.00;;;;;;;9.18;65.19;100560.66;4770700;29;20050;-77
2022/09/04 02:13:43;;;;;;;5.15;3.08;;;;;;;9.18;64.68;100562.34;4792152;29;20049;-77
2022/09/04 02:16:21;;;;;;;4.70;3.00;;;;;;;9.16;64.73;100558.88;4770667;29;20106;-79
2022/09/04 02:19:16;;;;;;;5.50;3.30;;;;;;;9.14;64.68;100558.88;4787234;29;20133;-77
2022/09/04 02:21:49;;;;;;;5.95;3.03;;;;;;;9.11;65.15;100564.03;4750543;29;20116;-77
2022/09/04 02:24:33;;;;;;;;;;;;;;;9.11;65.00;100557.97;4771404;29;20043;-76
2022/09/04 02:27:03;;;;;;;3.92;2.90;;;;;;;9.01;64.95;100549.25;4755309;29;19922;-78
2022/09/04 02:30:00;;;;;;;8.02;2.90;;;;;;;8.97;64.81;100574.28;4773430;29;20400;-77
2022/09/04 02:32:38;;;;;;;5.90;2.95;;;;;;;8.95;65.12;100580.31;4789790;29;20054;-77
2022/09/04 02:35:10;;;;;;;3.78;3.15;;;;;;;8.89;64.86;100568.16;4780136;29;20039;-76
2022/09/04 02:37:57;;;;;;;5.63;3.78;;;;;;;8.84;64.91;100569.81;4755004;29;20051;-78
2022/09/04 02:40:40;;;;;;;4.80;3.30;;;;;;;8.78;65.20;100574.94;4785914;29;20074;-78
2022/09/04 02:43:09;;;;;;;5.68;4.00;;;;;;;8.71;65.02;100579.19;4770073;29;20047;-77
2022/09/04 02:46:01;;;;;;;7.82;3.40;;;;;;;8.64;65.01;100579.97;4769303;29;20055;-76
2022/09/04 02:48:46;;;;;;;;;;;;;;;8.55;65.24;100576.44;4770309;29;20130;-78
2022/09/04 02:51:49;;;;;;;9.10;3.45;;;;;;;8.52;65.25;100583.28;4769591;29;19921;-77
2022/09/04 02:54:43;;;;;;;8.35;3.40;;;;;;;8.47;65.30;100582.34;4786710;29;20047;-77
2022/09/04 02:57:38;;;;;;;5.20;2.95;;;;;;;8.43;65.53;100590.09;4769459;29;20597;-78
2022/09/04 03:00:19;;;;;;;6.18;3.28;;;;;;;8.35;65.63;100577.88;4785581;29;20073;-77
2022/09/04 03:02:59;;;;;;;;;;;;;;;8.38;65.56;100586.56;4751871;29;20166;-76
2022/09/04 03:05:29;;;;;;;4.03;3.20;;;;;;;8.33;65.33;100577.84;4784531;29;19932;-76
2022/09/04 03:08:19;;;;;;;6.30;3.70;;;;;;;8.27;65.42;100581.25;4786992;29;20084;-77
2022/09/04 03:11:22;;;;;;;7.03;3.17;;;;;;;8.20;65.51;100576.81;4754118;29;20103;-77
2022/09/04 03:14:14;;;;;;;4.43;3.22;;;;;;;8.17;65.61;100568.13;4769896;29;20100;-77
2022/09/04 03:16:55;;;;;;;6.47;3.30;;;;;;;8.32;65.82;100590.81;4768237;29;20055;-78
2022/09/04 03:19:27;;;;;;;5.53;3.20;;;;;;;8.34;65.64;100594.31;4784958;29;20152;-77
2022/09/04 03:22:27;;;;;;;5.53;3.28;;;;;;;8.33;65.92;100592.56;4787770;29;20058;-76
2022/09/04 03:25:24;;;;;;;4.95;3.95;;;;;;;8.39;65.98;100598.69;4757058;29;20524;-77
2022/09/04 03:27:50;;;;;;;4.07;3.47;;;;;;;8.38;65.90;100585.72;4739612;29;20047;-78
2022/09/04 03:30:17;;;;;;;6.28;3.47;;;;;;;8.49;65.87;100591.06;4783761;29;20050;-77
2022/09/04 03:33:02;;;;;;;6.20;3.28;;;;;;;8.58;65.85;100589.44;4768902;29;20050;-78
2022/09/04 03:35:34;;;;;;;6.00;3.72;;;;;;;8.67;65.96;100586.09;4785698;29;20040;-77
2022/09/04 03:38:25;;;;;;;5.35;3.50;;;;;;;8.77;65.91;100584.47;4775344;29;20053;-76
2022/09/04 03:41:29;;;;;;;6.55;3.45;;;;;;;8.85;65.73;100581.94;4770488;29;20039;-77
2022/09/04 03:44:17;;;;;;;5.28;3.70;;;;;;;8.97;65.72;100592.44;4769249;29;20071;-76
2022/09/04 03:46:57;;;;;;;4.88;3.00;;;;;;;9.08;65.70;100599.50;4785392;29;20049;-78
2022/09/04 03:49:50;;;;;;;7.45;3.67;;;;;;;9.17;65.61;100576.19;4783808;29;20047;-77
2022/09/04 03:52:40;;;;;;;8.85;3.42;;;;;;;9.39;65.46;100589.38;4784651;29;20062;-77
2022/09/04 03:55:09;;;;;;;3.92;2.90;;;;;;;9.54;65.59;100592.13;4767954;29;20055;-78
2022/09/04 03:58:16;;;;;;;5.22;3.17;;;;;;;9.73;65.45;100584.47;4774887;29;20051;-78
2022/09/04 04:01:11;;;;;;;5.40;3.35;;;;;;;9.93;65.08;100588.06;4754629;29;20161;-78
2022/09/04 04:03:50;;;;;;;8.57;3.80;;;;;;;10.00;64.67;100567.31;4783058;29;20047;-78
2022/09/04 04:06:42;;;;;;;7.38;4.32;;;;;;;10.29;64.52;100582.16;4784967;29;20277;-78
2022/09/04 04:09:11;;;;;;;6.75;4.50;;;;;;;10.49;64.21;100587.50;4782711;29;20100;-79
2022/09/04 04:12:05;;;;;;;10.77;4.95;;;;;;;10.72;64.44;100577.16;4769815;29;20185;-79
2022/09/04 04:14:46;;;;;;;9.63;5.28;;;;;;;10.92;63.83;100577.22;4783021;29;20534;-78
2022/09/04 04:17:32;;;;;;;9.10;5.05;;;;;;;11.14;63.71;100565.09;4798722;29;20857;-78
2022/09/04 04:20:21;;;;;;;10.32;5.53;;;;;;;11.39;63.39;100567.72;4775676;29;20086;-77
2022/09/04 04:23:09;;;;;;;8.73;5.30;;;;;;;11.68;63.28;100558.16;4794159;29;20061;-76
2022/09/04 04:25:48;;;;;;;7.80;5.47;;;;;;;12.05;62.41;100564.19;4771671;29;20134;-78
2022/09/04 04:28:15;;;;;;;7.50;5.05;;;;;;;12.33;62.09;100561.47;4788624;29;20192;-78
2022/09/04 04:30:53;;;;;;;9.65;4.80;;;;;;;12.62;61.56;100560.50;4787447;29;20043;-78
2022/09/04 04:33:53;;;;;;;5.72;3.60;;;;;;;12.88;61.03;100556.88;4801787;29;20058;-78
2022/09/04 04:36:28;;;;;;;4.47;3.38;;;;;;;13.18;60.64;100554.91;4786763;29;20089;-78
2022/09/04 04:39:36;;;;;;;5.00;3.42;;;;;;;13.46;59.50;100554.72;4771776;29;20136;-76
2022/09/04 04:42:16;;;;;;;4.68;3.28;;;;;;;13.68;58.97;100557.13;4780811;29;20389;-76
2022/09/04 04:48:15;;;;;;;3.88;3.10;;;;;;;14.07;57.72;100557.59;4782579;29;20051;-77
2022/09/04 04:51:19;;;;;;;4.03;3.20;;;;;;;14.25;57.30;100559.13;4782471;29;20047;-78
2022/09/04 04:54:03;;;;;;;15.60;14.25;;;;;;;14.48;56.77;100557.09;4789481;29;20047;-81
2022/09/04 04:56:35;;;;;;;6.35;5.72;;;;;;;14.64;56.19;100550.78;4772298;29;20145;-78
2022/09/04 04:59:46;;;;;;;4.05;3.10;;;;;;;14.90;55.53;100553.06;4787254;29;20047;-77
2022/09/04 05:02:54;;;;;;;4.40;2.58;;;;;;;15.38;55.01;100532.22;4778595;29;20058;-80
2022/09/04 05:05:45;;;;;;;3.83;2.45;;;;;;;16.56;54.01;100550.09;4796724;29;20107;-78
2022/09/04 05:08:32;;;;;;;3.20;2.80;;;;;;;18.82;51.96;100542.47;4788825;29;20055;-77
2022/09/04 05:11:08;;;;;;;4.28;2.45;;;;;;;21.28;48.31;100522.16;4786435;29;20051;-77
2022/09/04 05:14:05;;;;;;;3.20;2.20;;;;;;;23.57;43.64;100508.03;4770343;29;20051;-77
2022/09/04 05:16:54;;;;;;;3.65;2.20;;;;;;;25.46;40.24;100507.41;4787566;29;20108;-80
2022/09/04 05:19:38;;;;;;;3.55;2.03;;;;;;;27.04;36.76;100497.44;4785091;29;20051;-78
2022/09/04 05:22:28;;;;;;;2.92;2.38;;;;;;;28.53;33.53;100499.66;4786958;29;20053;-79
2022/09/04 05:25:15;;;;;;;3.03;1.88;;;;;;;29.67;31.25;100494.72;4772725;29;20257;-78
2022/09/04 05:28:10;;;;;;;2.65;1.65;;;;;;;30.90;28.60;100481.22;4787912;29;20059;-77
2022/09/04 05:31:06;;;;;;;3.45;1.98;;;;;;;32.12;26.58;100491.41;4786523;29;20101;-78
2022/09/04 05:33:50;;;;;;;3.20;1.50;;;;;;;33.04;24.79;100493.97;4782174;29;20149;-78
2022/09/04 05:36:15;;;;;;;2.25;1.42;;;;;;;33.90;23.37;100503.84;4787817;29;20080;-77
2022/09/04 05:39:04;;;;;;;3.22;1.38;;;;;;;34.72;21.98;100480.63;4802426;29;20052;-77
2022/09/04 05:41:57;;;;;;;1.30;1.20;;;;;;;35.31;20.01;100490.91;4788480;29;20050;-78
2022/09/04 05:44:42;;;;;;;1.10;1.00;;;;;;;35.64;19.66;100485.72;4788828;29;20043;-78
2022/09/04 05:47:32;;;;;;;1.67;1.20;;;;;;;36.27;17.81;100492.59;4788229;29;20039;-78
2022/09/04 05:50:19;;;;;;;2.17;1.25;;;;;;;36.93;17.41;100478.28;4784926;29;20071;-79
2022/09/04 05:53:10;;;;;;;1.40;1.30;;;;;;;37.78;16.48;100493.25;4785045;29;20216;-81
2022/09/04 05:55:45;;;;;;;4.40;1.60;;;;;;;38.39;16.00;100487.19;4790634;29;20653;-78
2022/09/04 05:58:29;;;;;;;2.33;1.20;;;;;;;39.03;14.68;100496.09;4796273;29;20099;-78
2022/09/04 06:01:22;;;;;;;1.30;1.20;;;;;;;39.34;14.34;100486.94;4769728;29;20368;-78
2022/09/04 06:04:10;;;;;;;1.58;1.40;;;;;;;39.89;14.39;100486.69;4774899;29;20065;-78
2022/09/04 06:07:03;;;;;;;1.60;1.50;;;;;;;40.25;13.59;100496.75;4800550;29;20043;-78
2022/09/04 06:09:35;;;;;;;1.52;1.10;;;;;;;40.62;13.44;100493.97;4770524;29;20050;-77
2022/09/04 06:12:17;;;;;;;2.03;1.25;;;;;;;40.87;12.83;100499.06;4787690;29;20424;-78
2022/09/04 06:14:53;;;;;;;2.75;1.70;;;;;;;41.31;12.58;100492.50;4785295;29;20050;-77
2022/09/04 06:17:31;;;;;;;1.98;1.70;;;;;;;41.94;11.97;100497.03;4785085;29;20153;-78
2022/09/04 06:20:15;;;;;;;1.85;1.30;;;;;;;42.44;11.66;100506.91;4804812;29;20050;-77
2022/09/04 06:22:52;;;;;;;2.00;1.40;;;;;;;42.80;11.05;100502.97;4788298;29;20099;-77
2022/09/04 06:25:36;;;;;;;2.53;1.60;;;;;;;43.20;10.81;100511.13;4786417;29;20057;-76
2022/09/04 06:28:02;;;;;;;3.75;1.83;;;;;;;43.60;9.91;100503.91;4784519;29;20074;-81
2022/09/04 06:30:51;;;;;;;1.65;1.15;;;;;;;43.67;9.78;100504.75;4787117;29;20055;-79
2022/09/04 06:33:32;;;;;;;2.58;1.08;;;;;;;44.16;9.58;100496.97;4797967;29;20047;-83
2022/09/04 06:36:24;;;;;;;1.60;1.05;;;;;;;44.51;9.22;100492.97;4801721;29;20135;-77
2022/09/04 06:39:15;;;;;;;2.25;1.10;;;;;;;44.94;9.23;100497.72;4770658;29;20049;-78
2022/09/04 06:42:22;;;;;;;1.67;1.00;;;;;;;45.22;8.26;100499.13;4784245;29;20055;-77
2022/09/04 06:45:15;;;;;;;2.25;1.23;;;;;;;45.70;8.90;100494.00;4748322;30;20109;-78
2022/09/04 06:47:58;;;;;;;3.22;1.40;;;;;;;45.79;8.55;100491.78;4745213;30;20056;-79
2022/09/04 06:50:30;;;;;;;1.23;1.00;;;;;;;45.75;8.46;100502.41;4771291;29;20055;-77
2022/09/04 06:53:16;;;;;;;2.28;1.10;;;;;;;45.62;8.01;100494.28;4787501;29;20397;-79
2022/09/04 06:56:25;;;;;;;1.20;1.10;;;;;;;45.81;8.20;100506.13;4783869;29;20053;-82
2022/09/04 06:59:30;;;;;;;1.80;1.00;;;;;;;46.42;7.57;100507.03;4761820;29;20207;-80
2022/09/04 07:02:16;;;;;;;1.98;1.08;;;;;;;46.39;6.77;100499.19;4730295;30;20125;-78
2022/09/04 07:05:08;;;;;;;1.77;0.90;;;;;;;45.62;7.89;100502.50;4766734;29;20085;-79
2022/09/04 07:08:00;;;;;;;1.05;0.98;;;;;;;45.88;7.54;100491.22;4785849;29;20047;-79
2022/09/04 07:10:33;;;;;;;1.38;0.98;;;;;;;46.47;7.52;100503.56;4786117;29;20051;-80
2022/09/04 07:13:34;;;;;;;3.40;1.00;;;;;;;47.09;6.84;100499.56;4784818;29;20039;-82
2022/09/04 07:16:36;;;;;;;1.50;1.20;;;;;;;47.76;6.49;100494.69;4784551;29;20536;-80
2022/09/04 07:19:21;;;;;;;1.52;0.93;;;;;;;47.98;6.69;100497.63;4783299;29;20051;-79
2022/09/04 07:22:07;;;;;;;2.15;1.40;;;;;;;48.50;6.27;100482.84;4783995;29;20449;-78
2022/09/04 07:24:55;;;;;;;1.38;1.10;;;;;;;48.77;5.89;100484.13;4769009;29;20054;-80
2022/09/04 07:27:40;;;;;;;1.25;1.10;;;;;;;49.02;6.10;100485.56;4770163;29;20054;-81
2022/09/04 07:30:12;;;;;;;8.95;6.38;;;;;;;49.34;5.85;100482.16;4785701;29;20050;-79
2022/09/04 07:33:12;;;;;;;24.88;21.83;;;;;;;49.50;5.49;100481.28;4783360;29;20051;-81
2022/09/04 07:35:56;;;;;;;7.20;5.18;;;;;;;49.65;5.49;100479.81;4785969;29;20584;-82
2022/09/04 07:38:42;;;;;;;4.55;3.85;;;;;;;50.12;5.38;100483.91;4807075;29;20137;-79
2022/09/04 07:41:34;;;;;;;1.77;1.67;;;;;;;50.09;5.03;100471.47;4776037;29;20050;-77
2022/09/04 07:44:08;;;;;;;1.65;1.20;;;;;;;50.56;4.87;100475.50;4789360;29;20062;-79
2022/09/04 07:46:56;;;;;;;2.00;1.40;;;;;;;47.74;5.51;100466.53;4784232;29;20058;-80
2022/09/04 07:49:31;;;;;;;3.00;2.50;;;;;;;45.45;6.77;100459.19;4783718;29;20046;-83
2022/09/04 07:52:29;;;;;;;18.95;16.95;;;;;;;46.12;6.37;100455.63;4799012;29;20412;-79
2022/09/04 07:55:15;;;;;;;4.03;2.65;;;;;;;47.68;6.11;100459.25;4783663;29;20189;-81
2022/09/04 07:58:18;;;;;;;6.75;5.57;;;;;;;48.16;5.45;100452.47;4787607;29;20070;-78
2022/09/04 08:00:59;;;;;;;2.03;0.90;;;;;;;45.62;6.35;100447.56;4794482;29;20142;-82
2022/09/04 08:04:07;;;;;;;5.07;3.33;;;;;;;42.84;7.53;100452.25;4774906;29;20085;-79
2022/09/04 08:06:41;;;;;;;5.20;4.60;;;;;;;43.82;7.26;100433.28;4791108;29;20047;-79
2022/09/04 08:09:38;;;;;;;1.58;0.90;;;;;;;42.00;7.71;100435.28;4773463;29;20051;-79
2022/09/04 08:12:44;;;;;;;1.42;1.25;;;;;;;43.10;7.49;100439.59;4757923;29;20073;-81
2022/09/04 08:15:20;;;;;;;4.05;2.28;;;;;;;43.25;7.60;100431.16;4757252;29;20050;-83
2022/09/04 08:17:52;;;;;;;1.35;1.25;;;;;;;43.19;7.25;100435.56;4791479;29;20113;-80
2022/09/04 08:20:41;;;;;;;2.80;1.92;;;;;;;41.04;7.75;100434.97;4789417;29;20073;-79
2022/09/04 08:23:45;;;;;;;1.73;1.40;;;;;;;42.15;7.54;100429.66;4787619;29;20142;-77
2022/09/04 08:26:14;;;;;;;3.25;1.80;;;;;;;42.99;7.23;100418.34;4734282;30;20608;-80
2022/09/04 08:29:10;;;;;;;1.30;1.20;;;;;;;43.30;7.21;100416.84;4780252;29;20061;-79
2022/09/04 08:32:08;;;;;;;1.30;1.10;;;;;;;44.87;6.83;100411.03;4771916;29;20054;-79
2022/09/04 08:35:11;;;;;;;2.88;1.42;;;;;;;45.92;6.58;100420.13;4758641;29;20240;-79
2022/09/04 08:37:55;;;;;;;2.03;1.10;;;;;;;46.29;6.34;100409.03;4789923;29;20114;-80
2022/09/04 08:41:05;;;;;;;1.50;1.40;;;;;;;46.65;6.20;100417.34;4795476;29;20057;-81
2022/09/04 08:43:58;;;;;;;1.23;1.13;;;;;;;47.23;5.63;100412.06;4805106;29;20042;-80
2022/09/04 08:47:00;;;;;;;2.25;1.65;;;;;;;48.03;5.40;100416.91;4794301;29;20053;-82
2022/09/04 08:50:01;;;;;;;2.38;1.30;;;;;;;48.65;5.11;100413.28;4792655;29;20047;-80
2022/09/04 08:52:41;;;;;;;1.75;1.63;;;;;;;48.46;5.20;100409.94;4793129;29;20054;-79
2022/09/04 08:56:05;;;;;;;1.35;0.90;;;;;;;47.60;5.05;100408.13;4775434;29;20053;-80
2022/09/04 08:58:49;;;;;;;1.30;1.08;;;;;;;43.39;6.63;100409.22;4733388;30;20130;-77
2022/09/04 09:01:30;;;;;;;1.55;1.23;;;;;;;41.34;7.27;100403.91;4748120;30;20068;-79
2022/09/04 09:04:21;;;;;;;1.40;1.30;;;;;;;42.27;7.12;100405.28;4759888;29;20146;-78
2022/09/04 09:07:15;;;;;;;2.45;1.63;;;;;;;43.49;6.86;100390.41;4787685;29;20055;-80
2022/09/04 09:10:08;;;;;;;1.67;1.58;;;;;;;43.81;7.00;100395.97;4787464;29;20103;-80
2022/09/04 09:12:46;;;;;;;1.45;1.25;;;;;;;44.05;6.80;100391.63;4772409;29;20062;-80
2022/09/04 09:15:34;;;;;;;2.25;1.00;;;;;;;42.48;6.75;100367.91;4772369;29;20074;-78
2022/09/04 09:18:03;;;;;;;1.83;1.10;;;;;;;38.80;8.22;100376.44;4770712;29;20043;-80
2022/09/04 09:21:00;;;;;;;4.15;1.55;;;;;;;37.13;9.34;100396.59;4771403;29;20052;-82
2022/09/04 09:23:37;;;;;;;3.97;0.90;;;;;;;35.06;10.17;100398.84;4788167;29;20123;-78
2022/09/04 09:26:29;;;;;;;2.75;1.15;;;;;;;33.86;10.96;100408.00;4780417;29;20058;-77
2022/09/04 09:29:15;;;;;;;1.73;1.10;;;;;;;33.67;11.05;100410.78;4789789;29;20058;-78
2022/09/04 09:32:18;;;;;;;3.85;2.00;;;;;;;34.73;11.11;100399.44;4791528;29;20055;-83
2022/09/04 09:35:10;;;;;;;5.88;2.22;;;;;;;37.57;10.30;100390.69;4755125;30;20047;-79
2022/09/04 09:38:01;;;;;;;3.33;1.10;;;;;;;38.89;9.62;100388.13;4782950;29;20061;-79
2022/09/04 09:40:54;;;;;;;4.95;2.30;;;;;;;40.91;8.68;100388.53;4797677;29;20104;-77
2022/09/04 09:43:42;;;;;;;3.72;1.83;;;;;;;42.66;7.86;100387.22;4741340;30;20075;-80
2022/09/04 09:46:22;;;;;;;6.22;2.17;;;;;;;44.09;7.48;100384.66;4761718;30;20052;-79
2022/09/04 09:49:33;;;;;;;1.10;1.00;;;;;;;44.14;6.96;100375.75;4788380;29;20058;-79
2022/09/04 09:52:26;;;;;;;5.13;1.45;;;;;;;41.35;7.74;100386.50;4760158;30;20054;-83
2022/09/04 09:55:27;;;;;;;1.38;1.27;;;;;;;37.58;8.76;100376.09;4771536;29;20043;-80
2022/09/04 09:58:11;;;;;;;1.75;1.25;;;;;;;34.30;10.84;100399.19;4764950;29;20452;-79
2022/09/04 10:01:05;;;;;;;4.32;1.25;;;;;;;32.45;12.21;100402.38;4789879;29;20082;-80
2022/09/04 10:03:37;;;;;;;;;;;;;;;32.84;12.33;100393.44;4771838;30;20401;-77
2022/09/04 10:06:15;;;;;;;3.35;1.85;;;;;;;35.63;11.44;100378.50;4778882;29;19924;-78
2022/09/04 10:09:06;;;;;;;2.10;1.50;;;;;;;37.82;9.97;100380.56;4804422;29;20058;-81
2022/09/04 10:12:01;;;;;;;2.45;2.00;;;;;;;37.63;9.14;100364.72;4784420;29;20046;-79
2022/09/04 10:14:42;;;;;;;1.90;1.30;;;;;;;37.75;9.52;100379.59;4787943;29;20432;-79
2022/09/04 10:17:30;;;;;;;1.55;0.80;;;;;;;37.70;9.45;100379.28;4803154;29;20038;-80
2022/09/04 10:20:33;;;;;;;1.00;0.90;;;;;;;37.36;9.73;100375.00;4783321;29;20108;-79
2022/09/04 10:23:44;;;;;;;2.00;1.00;;;;;;;37.59;9.87;100369.66;4771501;29;20046;-78
2022/09/04 10:26:47;;;;;;;2.38;1.10;;;;;;;39.04;9.03;100363.66;4806048;29;20054;-79
2022/09/04 10:29:31;;;;;;;1.20;1.00;;;;;;;40.11;8.76;100367.69;4802431;29;20046;-79
2022/09/04 10:32:19;;;;;;;1.30;1.10;;;;;;;39.65;8.98;100363.44;4775109;29;20055;-79
2022/09/04 10:34:54;;;;;;;1.35;1.10;;;;;;;39.83;8.87;100373.06;4742153;30;20518;-79
2022/09/04 10:37:36;;;;;;;4.20;1.52;;;;;;;40.16;8.40;100356.22;4788026;29;20069;-79
2022/09/04 10:40:40;;;;;;;2.40;1.40;;;;;;;38.92;9.31;100361.41;4782569;29;20532;-78
2022/09/04 10:43:34;;;;;;;2.72;1.20;;;;;;;36.41;10.64;100365.63;4757854;30;20089;-80
2022/09/04 10:46:15;;;;;;;1.80;1.05;;;;;;;34.17;11.36;100374.44;4757013;30;20043;-80
2022/09/04 10:49:26;;;;;;;3.17;0.88;;;;;;;32.26;12.75;100377.13;4789814;29;20047;-79
2022/09/04 10:52:08;;;;;;;2.92;1.00;;;;;;;31.11;13.39;100375.59;4760486;30;20511;-78
2022/09/04 10:54:53;;;;;;;1.33;0.90;;;;;;;29.50;13.78;100381.66;4798620;29;20115;-82
2022/09/04 10:57:52;;;;;;;1.77;1.02;;;;;;;28.42;14.63;100372.00;4773490;29;20523;-79
2022/09/04 11:00:21;;;;;;;1.85;1.10;;;;;;;27.89;14.89;100365.16;4783879;29;20057;-81
2022/09/04 11:03:26;;;;;;;2.25;1.10;;;;;;;27.41;15.56;100375.69;4787867;29;20043;-77
2022/09/04 11:06:14;;;;;;;1.65;0.98;;;;;;;26.97;15.87;100367.16;4776549;29;20589;-79
2022/09/04 11:09:05;;;;;;;1.58;0.90;;;;;;;26.59;15.91;100366.13;4788994;29;20062;-81
2022/09/04 11:12:09;;;;;;;1.27;1.08;;;;;;;25.67;16.97;100369.31;4754517;29;20046;-80
2022/09/04 11:15:07;;;;;;;1.10;0.95;;;;;;;25.06;17.40;100376.59;4774015;29;20064;-81
2022/09/04 11:17:58;;;;;;;1.20;1.10;;;;;;;24.81;17.88;100389.59;4767958;30;20075;-78
2022/09/04 11:20:47;;;;;;;0.60;0.60;;;;;;;24.29;18.01;100381.97;4767146;29;20049;-79
2022/09/04 11:23:13;;;;;;;1.70;0.80;;;;;;;24.21;18.28;100385.06;4751550;29;20062;-77
2022/09/04 11:26:04;;;;;;;1.08;0.88;;;;;;;24.35;18.55;100378.94;4792967;29;20053;-79
2022/09/04 11:28:43;;;;;;;1.55;1.00;;;;;;;24.29;18.69;100374.84;4759683;30;20043;-81
2022/09/04 11:31:31;;;;;;;2.20;1.20;;;;;;;24.31;18.97;100365.00;4774582;29;20180;-78
2022/09/04 11:34:13;;;;;;;2.75;0.90;;;;;;;24.28;19.64;100375.78;4771351;30;20046;-78
2022/09/04 11:36:46;;;;;;;1.30;0.90;;;;;;;23.96;19.65;100378.44;4784086;29;20054;-78
2022/09/04 11:39:47;;;;;;;1.92;0.90;;;;;;;23.68;19.99;100376.44;4788414;29;20081;-80
2022/09/04 11:42:31;;;;;;;1.50;0.90;;;;;;;23.56;19.89;100377.97;4776032;29;20047;-80
2022/09/04 11:45:02;;;;;;;1.10;0.70;;;;;;;23.43;20.37;100377.78;4787051;29;20043;-77
2022/09/04 11:47:55;;;;;;;3.13;1.10;;;;;;;23.08;20.21;100352.13;4805406;29;20057;-81
2022/09/04 11:50:33;;;;;;;0.77;0.77;;;;;;;23.17;20.38;100372.03;4782002;29;20525;-79
2022/09/04 11:53:07;;;;;;;5.28;1.10;;;;;;;23.16;20.42;100372.97;4757164;30;20105;-80
2022/09/04 11:55:52;;;;;;;0.95;0.85;;;;;;;22.92;20.65;100357.41;4745122;29;20154;-77
2022/09/04 11:58:49;;;;;;;1.23;0.80;;;;;;;22.95;20.70;100369.63;4786498;29;20558;-79
2022/09/04 12:01:36;;;;;;;1.55;1.13;;;;;;;22.70;20.51;100368.25;4765354;29;20058;-79
2022/09/04 12:04:41;;;;;;;0.93;0.80;;;;;;;22.18;20.72;100363.69;4785678;29;20051;-78
2022/09/04 12:07:29;;;;;;;1.42;0.90;;;;;;;21.48;20.85;100373.06;4800627;29;20504;-79
2022/09/04 12:10:20;;;;;;;1.90;0.90;;;;;;;21.00;20.96;100374.31;4783172;29;20066;-78
2022/09/04 12:13:04;;;;;;;5.35;1.15;;;;;;;20.65;21.62;100376.66;4770138;29;20200;-77
2022/09/04 12:15:43;;;;;;;4.68;1.00;;;;;;;20.57;21.94;100371.69;4768781;29;20076;-79
2022/09/04 12:18:30;;;;;;;4.22;1.00;;;;;;;20.40;22.14;100378.53;4783726;29;20047;-82
2022/09/04 12:21:01;;;;;;;1.35;1.05;;;;;;;20.26;22.74;100381.72;4795653;29;20115;-80
2022/09/04 12:23:55;;;;;;;1.98;1.10;;;;;;;20.10;22.87;100375.31;4787992;29;20150;-79
2022/09/04 12:27:13;;;;;;;5.97;1.20;;;;;;;19.95;23.40;100368.88;4785656;29;20051;-78
2022/09/04 12:29:52;;;;;;;2.17;1.00;;;;;;;19.88;23.46;100375.31;4787552;29;20063;-80
2022/09/04 12:32:34;;;;;;;3.35;1.70;;;;;;;19.92;23.57;100375.13;4790466;29;20067;-77
2022/09/04 12:35:13;;;;;;;3.42;1.60;;;;;;;19.99;23.65;100368.69;4774107;29;20141;-78
2022/09/04 12:37:56;;;;;;;3.95;1.80;;;;;;;19.92;23.76;100380.41;4788304;29;20050;-78
2022/09/04 12:40:49;;;;;;;1.23;0.98;;;;;;;19.74;23.65;100358.19;4800059;29;20047;-78
2022/09/04 12:43:49;;;;;;;1.33;1.10;;;;;;;19.66;23.74;100369.00;4804324;29;20055;-78
2022/09/04 12:46:49;;;;;;;3.20;1.00;;;;;;;19.50;23.83;100368.75;4791212;29;20043;-81
2022/09/04 12:49:42;;;;;;;3.85;1.27;;;;;;;19.35;24.25;100377.19;4784586;29;20049;-78
2022/09/04 12:52:23;;;;;;;1.63;1.00;;;;;;;19.26;24.08;100368.72;4795126;29;20050;-80
2022/09/04 12:55:11;;;;;;;1.57;1.30;;;;;;;19.26;24.45;100374.00;4787402;29;20436;-78
2022/09/04 12:58:10;;;;;;;2.45;1.17;;;;;;;19.18;24.62;100373.41;4788981;29;20303;-79
2022/09/04 13:01:12;;;;;;;4.55;1.30;;;;;;;19.10;24.88;100352.59;4800384;29;20089;-80
2022/09/04 13:03:47;;;;;;;;;;;;;;;19.29;25.18;100382.72;4788787;29;20043;-78
2022/09/04 13:06:33;;;;;;;4.20;1.50;;;;;;;19.27;24.87;100374.84;4787051;29;20011;-79
2022/09/04 13:09:10;;;;;;;3.60;1.83;;;;;;;19.09;24.89;100363.16;4788436;29;20107;-80